• Join FlightAware (Why Join?)
  • Login
  • US Flag 
03:02PM EDT


 

Airport Tracker/Info


-or-


 

Live Flight TrackerFlight Track Log ✈ NKS216 ✈ 17-08-2013 ✈ KLAX - KIAH

Flight Track Log - Related Links

Times and Time Zones

All times are in EDT time to prevent confusion due to time zone crossing. See the NKS216 flight status page for this flight to view local times or setup timezone preferences in your user account.

Time Position Orientation Groundspeed Altitude Reporting Facility
EDT Latitude Longitude Course Direction KTS MPH feet Rate Location/Type
02:58AM 33.9460 -118.4430 257° West 165 190 1,000  Level FlightAware
02:58AM 33.9440 -118.4500 251° West 163 188 1,300 1,980 Climbing FlightAware
02:58AM 33.9420 -118.4540 239° Southwest 165 190 1,400 1,500 Climbing FlightAware
02:58AM 33.9390 -118.4580 228° Southwest 169 194 1,600 1,620 Climbing FlightAware
02:58AM 33.9330 -118.4660 228° Southwest 179 206 1,900 1,320 Climbing FlightAware
02:59AM 33.9160 -118.4860 224° Southwest 209 241 2,400 1,080 Climbing FlightAware
02:59AM 33.9080 -118.4950 223° Southwest 225 259 2,600 900 Climbing FlightAware
02:59AM 33.9010 -118.5030 223° Southwest 243 280 2,700 1,080 Climbing FlightAware
02:59AM 33.8930 -118.5090 212° Southwest 257 296 2,900 1,500 Climbing FlightAware
02:59AM 33.8880 -118.5110 198° South 263 303 3,000 1,680 Climbing FlightAware
02:59AM 33.8740 -118.5140 190° South 274 315 3,300 2,580 Climbing FlightAware
03:00AM 33.8530 -118.5160 185° South 275 316 4,300 3,540 Climbing FlightAware
03:00AM 33.8190 -118.5170 181° South 271 312 5,900 3,480 Climbing FlightAware
03:00AM 33.8040 -118.5170 180° South 273 314 6,400 3,000 Climbing FlightAware
03:01AM 33.7790 -118.5180 182° South 272 313 7,500 3,000 Climbing FlightAware
03:01AM 33.7630 -118.5180 180° South 273 314 8,100 2,460 Climbing FlightAware
03:01AM 33.7370 -118.5190 182° South 278 320 9,000 2,520 Climbing FlightAware
03:02AM 33.7010 -118.5080 166° South 287 330 10,200 2,160 Climbing FlightAware
03:02AM 33.6870 -118.4880 130° Southeast 305 351 10,600 1,320 Climbing FlightAware
03:02AM 33.6700 -118.4330 110° East 339 390 11,300 1,140 Climbing FlightAware
03:03AM 33.6500 -118.3660 110° East 372 428 11,900 900 Climbing FlightAware
03:03AM 33.6440 -118.3330 102° East 390 449 12,100 1,200 Climbing FlightAware
03:04AM 33.6440 -118.2940 90° East 400 460 12,800 1,800 Climbing FlightAware
03:04AM 33.6450 -118.1880 89° East 408 470 14,200 2,040 Climbing FlightAware
03:05AM 33.6450 -118.1000 90° East 417 480 15,400 2,040 Climbing FlightAware
03:06AM 33.6450 -118.0300 90° East 416 479 16,500 1,920 Climbing FlightAware
03:06AM 33.6450 -117.9490 90° East 424 488 17,500 1,740 Climbing FlightAware
03:07AM 33.6440 -117.8520 91° East 432 497 18,700 1,680 Climbing FlightAware
03:07AM 33.6440 -117.7640 90° East 439 505 19,700 1,560 Climbing FlightAware
03:08AM 33.6440 -117.6920 90° East 447 514 20,400 1,380 Climbing FlightAware
03:08AM 33.6430 -117.6000 91° East 454 522 21,300 1,440 Climbing FlightAware
03:09AM 33.6430 -117.5050 90° East 461 531 22,200 1,320 Climbing FlightAware
03:10AM 33.6420 -117.4170 91° East 468 539 22,900 1,080 Climbing FlightAware
03:10AM 33.6350 -117.3270 95° East 471 542 23,500 1,020 Climbing FlightAware
03:11AM 33.6240 -117.2340 98° East 479 551 24,100 1,140 Climbing FlightAware
03:11AM 33.6130 -117.1440 98° East 481 554 24,900 1,080 Climbing FlightAware
03:12AM 33.6020 -117.0510 98° East 487 560 25,400 900 Climbing FlightAware
03:13AM 33.5910 -116.9610 98° East 491 565 25,900 1,140 Climbing FlightAware
03:13AM 33.5790 -116.8570 98° East 488 562 26,800 1,320 Climbing FlightAware
03:14AM 33.5680 -116.7700 99° East 487 560 27,500 1,200 Climbing FlightAware
03:14AM 33.5570 -116.6750 98° East 487 560 28,200 1,200 Climbing FlightAware
03:15AM 33.5450 -116.5800 99° East 485 558 29,000 1,320 Climbing FlightAware
03:16AM 33.5330 -116.4840 99° East 485 558 29,800 1,440 Climbing FlightAware
03:16AM 33.5230 -116.4060 99° East 480 552 30,600 1,320 Climbing FlightAware
03:17AM 33.5110 -116.3110 99° East 481 554 31,300 1,140 Climbing FlightAware
03:17AM 33.4980 -116.2070 98° East 479 551 32,100 1,320 Climbing FlightAware
03:18AM 33.4870 -116.1230 99° East 474 545 32,900 1,320 Climbing FlightAware
03:18AM 33.4750 -116.0290 99° East 474 545 33,600 1,020 Climbing FlightAware
03:19AM 33.4650 -115.9520 99° East 474 545 34,100 1,020 Climbing FlightAware
03:20AM 33.4530 -115.8610 99° East 473 544 34,800 720 Climbing FlightAware
03:20AM 33.4420 -115.7710 98° East 468 539 35,000 120 Climbing FlightAware
03:21AM 33.4300 -115.6860 100° East 470 541 35,000 420 Level FlightAware
03:21AM 33.4180 -115.5920 99° East 469 540 35,500 900 Climbing FlightAware
03:22AM 33.4060 -115.5040 99° East 468 539 36,100 900 Climbing FlightAware
03:22AM 33.3940 -115.4140 99° East 468 539 36,600 720 Climbing FlightAware
03:23AM 33.3830 -115.3250 98° East 463 533 37,000 300 Climbing FlightAware
03:24AM 33.3710 -115.2380 99° East 462 532 37,000  Level FlightAware
03:24AM 33.3590 -115.1480 99° East 463 533 37,000  Level FlightAware
03:25AM 33.3470 -115.0640 100° East 463 533 37,000  Level FlightAware
03:25AM 33.3350 -114.9730 99° East 463 533 37,000  Level FlightAware
03:26AM 33.3220 -114.8840 100° East 463 533 37,000  Level FlightAware
03:27AM 33.3100 -114.7970 99° East 463 533 37,000  Level FlightAware
03:27AM 33.2990 -114.7170 99° East 463 533 37,000  Level FlightAware
03:28AM 33.2860 -114.6230 99° East 464 534 37,000  Level FlightAware
03:28AM 33.2690 -114.5050 100° East 464 534 37,000  Level FlightAware
03:29AM 33.2590 -114.4300 99° East 466 536 37,000  Level FlightAware
03:30AM 33.2440 -114.3270 100° East 466 536 37,000  Level FlightAware
03:30AM 33.2310 -114.2350 100° East 466 536 37,000  Level FlightAware
03:31AM 33.2180 -114.1430 100° East 467 537 37,000  Level FlightAware
03:31AM 33.2040 -114.0520 100° East 468 539 37,000  Level FlightAware
03:32AM 33.1920 -113.9670 100° East 469 540 37,000  Level FlightAware
03:33AM 33.1770 -113.8620 100° East 470 541 37,000  Level FlightAware
03:33AM 33.1670 -113.7830 99° East 470 541 37,000  Level FlightAware
03:34AM 33.1560 -113.7020 99° East 470 541 37,000  Level FlightAware
03:35AM 33.1350 -113.5750 101° East 470 541 37,000  Level FlightAware
03:35AM 33.1290 -113.4820 94° East 471 542 37,000  Level FlightAware
03:36AM 33.1220 -113.3700 94° East 471 542 37,000  Level FlightAware
03:37AM 33.1160 -113.2660 94° East 471 542 37,000  Level FlightAware
03:37AM 33.1110 -113.1760 94° East 472 543 37,000  Level FlightAware
03:38AM 33.1050 -113.0840 94° East 471 542 37,000  Level FlightAware
03:38AM 33.1000 -112.9960 94° East 470 541 37,000  Level FlightAware
03:39AM 33.0940 -112.9050 94° East 469 540 37,000  Level FlightAware
03:39AM 33.0880 -112.8080 94° East 468 539 37,000  Level FlightAware
03:40AM 33.0820 -112.7160 94° East 466 536 37,000  Level FlightAware
03:41AM 33.0700 -112.6370 100° East 462 532 37,000  Level FlightAware
03:41AM 33.0550 -112.5470 101° East 462 532 37,000  Level FlightAware
03:42AM 33.0410 -112.4620 101° East 462 532 37,000  Level FlightAware
03:42AM 33.0260 -112.3750 102° East 463 533 37,000  Level FlightAware
03:43AM 33.0100 -112.2810 101° East 464 534 37,000  Level FlightAware
03:44AM 32.9940 -112.1930 102° East 463 533 37,000  Level FlightAware
03:44AM 32.9800 -112.1110 101° East 463 533 37,000  Level FlightAware
03:45AM 32.9640 -112.0200 102° East 464 534 37,000  Level FlightAware
03:45AM 32.9480 -111.9300 102° East 465 535 37,000  Level FlightAware
03:46AM 32.9340 -111.8480 101° East 464 534 37,000  Level FlightAware
03:46AM 32.9200 -111.7690 102° East 465 535 37,000  Level FlightAware
03:47AM 32.9040 -111.6780 102° East 463 533 37,000  Level FlightAware
03:48AM 32.8880 -111.5920 102° East 460 529 37,000  Level FlightAware
03:48AM 32.8720 -111.5010 102° East 459 528 37,000  Level FlightAware
03:49AM 32.8560 -111.4130 102° East 460 529 37,000  Level FlightAware
03:49AM 32.8420 -111.3360 102° East 462 532 37,000  Level FlightAware
03:50AM 32.8250 -111.2400 102° East 465 535 37,000  Level FlightAware
03:51AM 32.8100 -111.1550 102° East 468 539 37,000  Level FlightAware
03:51AM 32.7940 -111.0690 102° East 469 540 37,000  Level FlightAware
03:52AM 32.7800 -110.9920 102° East 471 542 37,000  Level FlightAware
03:52AM 32.7610 -110.8920 103° East 472 543 37,000  Level FlightAware
03:53AM 32.7450 -110.8040 102° East 472 543 37,000  Level FlightAware
03:53AM 32.7280 -110.7140 103° East 474 545 37,000  Level FlightAware
03:54AM 32.7120 -110.6290 103° East 474 545 37,000  Level FlightAware
03:55AM 32.6960 -110.5400 102° East 473 544 37,000  Level FlightAware
03:55AM 32.6790 -110.4530 103° East 471 542 37,000  Level FlightAware
03:56AM 32.6620 -110.3610 102° East 471 542 37,000  Level FlightAware
03:56AM 32.6440 -110.2650 103° East 472 543 37,000  Level FlightAware
03:57AM 32.6280 -110.1830 103° East 471 542 37,000  Level FlightAware
03:57AM 32.6120 -110.0970 102° East 471 542 37,000  Level FlightAware
03:58AM 32.5930 -110.0020 103° East 469 540 37,000  Level FlightAware
03:59AM 32.5760 -109.9140 103° East 467 537 37,000  Level FlightAware
03:59AM 32.5610 -109.8330 102° East 464 534 37,000  Level FlightAware
04:00AM 32.5440 -109.7440 103° East 464 534 37,000 -120 Level FlightAware
04:00AM 32.5260 -109.6540 103° East 465 535 36,900 -120 Descending FlightAware
04:01AM 32.5100 -109.5710 103° East 466 536 36,900 60 Level FlightAware
04:02AM 32.4930 -109.4860 103° East 467 537 37,000 60 Climbing FlightAware
04:02AM 32.4740 -109.3930 104° East 467 537 37,000  Level FlightAware
04:03AM 32.4580 -109.3090 103° East 467 537 37,000  Level FlightAware
04:03AM 32.4400 -109.2180 103° East 466 536 37,000  Level FlightAware
04:04AM 32.4220 -109.1310 104° East 466 536 37,000  Level FlightAware
04:05AM 32.4060 -109.0510 103° East 465 535 37,000  Level FlightAware
04:05AM 32.3880 -108.9600 103° East 465 535 37,000 -120 Level FlightAware
04:06AM 32.3700 -108.8730 104° East 467 537 36,900  Descending FlightAware
04:06AM 32.3520 -108.7820 103° East 469 540 37,000 60 Climbing FlightAware
04:07AM 32.3280 -108.6650 104° East 472 543 37,000  Level FlightAware
04:08AM 32.3090 -108.5740 104° East 474 545 37,000  Level FlightAware
04:09AM 32.2820 -108.4390 103° East 475 547 37,000  Level FlightAware
04:09AM 32.2640 -108.3560 104° East 474 545 37,000  Level FlightAware
04:10AM 32.2480 -108.2720 103° East 473 544 37,000  Level FlightAware
04:10AM 32.2240 -108.1620 104° East 472 543 37,000  Level FlightAware
04:11AM 32.2080 -108.0830 103° East 470 541 37,000  Level FlightAware
04:12AM 32.1910 -108.0030 104° East 470 541 37,000  Level FlightAware
04:12AM 32.1740 -107.9160 103° East 470 541 37,000  Level FlightAware
04:13AM 32.1590 -107.8390 103° East 470 541 37,000  Level FlightAware
04:13AM 32.1440 -107.7630 103° East 470 541 37,000  Level FlightAware
04:14AM 32.1290 -107.6860 103° East 470 541 37,000  Level FlightAware
04:15AM 32.1140 -107.6100 103° East 470 541 37,000  Level FlightAware
04:15AM 32.1000 -107.5370 103° East 470 541 37,000  Level FlightAware
04:16AM 32.0850 -107.4610 103° East 470 541 37,000  Level FlightAware
04:16AM 32.0700 -107.3840 103° East 470 541 37,000  Level FlightAware
04:17AM 32.0550 -107.3080 103° East 470 541 37,000  Level FlightAware
04:18AM 32.0400 -107.2310 103° East 470 541 37,000  Level FlightAware
04:18AM 31.9760 -107.0040 108° East 480 552 37,000  Level FlightAware
04:19AM 31.9570 -106.9140 104° East 480 552 37,000  Level FlightAware
04:19AM 31.9370 -106.8250 105° East 480 552 37,000  Level FlightAware
04:20AM 31.9170 -106.7360 105° East 481 554 37,000  Level FlightAware
04:21AM 31.8950 -106.6360 105° East 482 555 37,000  Level FlightAware
04:21AM 31.8770 -106.5550 105° East 482 555 37,000  Level FlightAware
04:22AM 31.8560 -106.4600 105° East 482 555 37,000  Level FlightAware
04:22AM 31.8350 -106.3680 105° East 480 552 37,000  Level FlightAware
04:23AM 31.8160 -106.2780 104° East 479 551 37,000  Level FlightAware
04:24AM 31.8050 -106.1890 98° East 477 549 37,000  Level FlightAware
04:24AM 31.7950 -106.1020 98° East 476 548 37,000  Level FlightAware
04:25AM 31.7840 -106.0110 98° East 475 547 37,000  Level FlightAware
04:25AM 31.7710 -105.9100 99° East 476 548 37,000  Level FlightAware
04:26AM 31.7580 -105.8090 99° East 476 548 37,000  Level FlightAware
04:27AM 31.7480 -105.7270 98° East 476 548 37,000  Level FlightAware
04:27AM 31.7390 -105.6480 98° East 476 548 37,000  Level FlightAware
04:28AM 31.7300 -105.5700 98° East 476 548 37,000  Level FlightAware
04:28AM 31.7200 -105.4910 98° East 476 548 37,000  Level FlightAware
04:29AM 31.7110 -105.4130 98° East 476 548 37,000  Level FlightAware
04:30AM 31.7010 -105.3320 98° East 476 548 37,000  Level FlightAware
04:30AM 31.6920 -105.2540 98° East 476 548 37,000  Level FlightAware
04:31AM 31.6620 -105.0640 100° East 478 550 37,000  Level FlightAware
04:31AM 31.6500 -104.9750 99° East 477 549 37,000  Level FlightAware
04:32AM 31.6380 -104.8740 98° East 477 549 37,000  Level FlightAware
04:33AM 31.6240 -104.7740 99° East 476 548 37,000  Level FlightAware
04:33AM 31.6080 -104.6630 100° East 477 549 37,000  Level FlightAware
04:34AM 31.5960 -104.5710 99° East 477 549 37,000  Level FlightAware
04:35AM 31.5850 -104.4890 99° East 477 549 37,000  Level FlightAware
04:35AM 31.5740 -104.4110 99° East 479 551 37,000  Level FlightAware
04:36AM 31.5610 -104.3130 99° East 478 550 37,000  Level FlightAware
04:36AM 31.5480 -104.2190 99° East 478 550 37,000  Level FlightAware
04:37AM 31.5370 -104.1410 99° East 478 550 37,000  Level FlightAware
04:38AM 31.5270 -104.0620 98° East 478 550 37,000  Level FlightAware
04:38AM 31.5160 -103.9840 99° East 478 550 37,000  Level FlightAware
04:39AM 31.5050 -103.9060 99° East 478 550 37,000  Level FlightAware
04:39AM 31.4950 -103.8250 98° East 478 550 37,000  Level FlightAware
04:40AM 31.4840 -103.7470 99° East 478 550 37,000  Level FlightAware
04:41AM 31.4730 -103.6680 99° East 478 550 37,000  Level FlightAware
04:41AM 31.4630 -103.5900 99° East 478 550 37,000  Level FlightAware
04:42AM 31.4520 -103.5120 99° East 478 550 37,000  Level FlightAware
04:42AM 31.4410 -103.4310 99° East 478 550 37,000  Level FlightAware
04:43AM 31.4300 -103.3510 99° East 478 550 37,000  Level FlightAware
04:44AM 31.4200 -103.2720 98° East 478 550 37,000  Level FlightAware
04:44AM 31.4090 -103.1920 99° East 478 550 37,000  Level FlightAware
04:45AM 31.3980 -103.1130 99° East 478 550 37,000  Level FlightAware
04:46AM 31.3870 -103.0330 99° East 478 550 37,000  Level FlightAware
04:46AM 31.3267 -102.7125 99° East 464 534 37,000  Level Houston Center
04:47AM 31.3044 -102.5633 100° East 466 536 37,000  Level Houston Center
04:48AM 31.2814 -102.4178 100° East 461 531 37,000  Level Houston Center
04:49AM 31.2611 -102.2719 99° East 472 543 37,000  Level Houston Center
04:50AM 31.2381 -102.1236 100° East 475 547 37,000 -60 Level Houston Center
04:51AM 31.2147 -101.9753 100° East 472 543 36,900  Descending Houston Center
04:52AM 31.1906 -101.8275 101° East 467 537 37,000  Climbing Houston Center
04:54AM 31.1669 -101.6769 100° East 471 542 37,000  Level Houston Center
04:59AM 31.0220 -100.7910 100° East 467 537 37,000  Level FlightAware
05:00AM 31.0070 -100.7020 101° East 467 537 37,000  Level FlightAware
05:00AM 30.9930 -100.6170 101° East 467 537 37,000  Level FlightAware
05:01AM 30.9810 -100.5460 101° East 467 537 37,000  Level FlightAware
05:02AM 30.9640 -100.4490 102° East 469 540 37,000  Level FlightAware
05:02AM 30.9520 -100.3750 101° East 470 541 37,000  Level FlightAware
05:03AM 30.9390 -100.2990 101° East 470 541 37,000  Level FlightAware
05:03AM 30.9260 -100.2230 101° East 470 541 37,000  Level FlightAware
05:04AM 30.9140 -100.1470 100° East 470 541 37,000  Level FlightAware
05:04AM 30.8890 -100.0110 102° East 471 542 37,000  Level FlightAware
05:05AM 30.8750 -99.9270 101° East 471 542 37,000  Level FlightAware
05:06AM 30.8620 -99.8500 101° East 471 542 37,000  Level FlightAware
05:06AM 30.8490 -99.7740 101° East 471 542 37,000  Level FlightAware
05:07AM 30.8260 -99.6540 103° East 468 539 37,000  Level FlightAware
05:08AM 30.8100 -99.5640 102° East 469 540 37,000  Level FlightAware
05:08AM 30.7970 -99.4910 102° East 469 540 37,000  Level FlightAware
05:09AM 30.7800 -99.3960 102° East 469 540 37,000  Level FlightAware
05:09AM 30.7650 -99.3100 101° East 469 540 37,000  Level FlightAware
05:10AM 30.7480 -99.2160 102° East 469 540 37,000  Level FlightAware
05:10AM 30.7340 -99.1380 102° East 469 540 37,000  Level FlightAware
05:11AM 30.7170 -99.0480 102° East 470 541 37,000  Level FlightAware
05:12AM 30.6980 -98.9450 102° East 469 540 37,000  Level FlightAware
05:12AM 30.6830 -98.8620 102° East 470 541 37,000  Level FlightAware
05:13AM 30.6650 -98.7580 101° East 469 540 37,000  Level FlightAware
05:14AM 30.6456 -98.6566 103° East 468 539 37,000  Level FlightAware ADS-B
05:14AM 30.6319 -98.5827 102° East 468 539 37,000  Level FlightAware ADS-B
05:15AM 30.6164 -98.4991 102° East 470 541 37,000  Level FlightAware ADS-B
05:15AM 30.6020 -98.4222 102° East 472 543 37,000  Level FlightAware ADS-B
05:15AM 30.5954 -98.3874 102° East 470 541 37,000  Level FlightAware ADS-B
05:16AM 30.5873 -98.3445 102° East 473 544 37,000  Level FlightAware ADS-B
05:16AM 30.5757 -98.2830 102° East 473 544 37,000  Level FlightAware ADS-B
05:16AM 30.5733 -98.2702 102° East 474 545 37,000  Level FlightAware ADS-B
05:17AM 30.5605 -98.2026 102° East 474 545 37,000  Level FlightAware ADS-B
05:17AM 30.5590 -98.1949 103° East 474 545 37,000  Level FlightAware ADS-B
05:17AM 30.5447 -98.1192 102° East 475 547 37,000  Level FlightAware ADS-B
05:18AM 30.5304 -98.0440 102° East 475 547 37,000  Level FlightAware ADS-B
05:18AM 30.5161 -97.9696 103° East 474 545 37,000 60 Level FlightAware ADS-B
05:19AM 30.5018 -97.8951 103° East 471 542 37,100  Climbing FlightAware ADS-B
05:19AM 30.4876 -97.8208 102° East 469 540 37,000 -120 Descending FlightAware ADS-B
05:20AM 30.4733 -97.7467 103° East 467 537 37,000  Level FlightAware ADS-B
05:20AM 30.4728 -97.7441 103° East 467 537 37,000  Level FlightAware ADS-B
05:20AM 30.4582 -97.6686 103° East 466 536 37,000  Level FlightAware ADS-B
05:20AM 30.4569 -97.6618 103° East 466 536 37,000  Level FlightAware ADS-B
05:21AM 30.4439 -97.5951 103° East 465 535 37,000  Level FlightAware ADS-B
05:21AM 30.4426 -97.5884 103° East 464 534 37,000  Level FlightAware ADS-B
05:21AM 30.4302 -97.5244 103° East 463 533 37,000  Level FlightAware ADS-B
05:21AM 30.4268 -97.5073 103° East 462 532 37,000 -240 Level FlightAware ADS-B
05:22AM 30.4157 -97.4507 103° East 463 533 36,900 -420 Descending FlightAware ADS-B
05:22AM 30.4123 -97.4329 102° East 463 533 36,800 -900 Descending FlightAware ADS-B
05:23AM 30.3869 -97.3035 103° East 467 537 36,000 -1,140 Descending FlightAware ADS-B
05:23AM 30.3724 -97.2300 103° East 468 539 35,300 -1,440 Descending FlightAware ADS-B
05:24AM 30.3581 -97.1574 103° East 464 534 34,600 -1,620 Descending FlightAware ADS-B
05:24AM 30.3436 -97.0837 103° East 474 545 33,700 -2,760 Descending FlightAware ADS-B
05:25AM 30.3133 -96.9331 103° East 479 551 30,500 -3,360 Descending FlightAware ADS-B
05:26AM 30.2984 -96.8581 103° East 483 556 28,700 -4,140 Descending FlightAware ADS-B
05:27AM 30.2730 -96.7345 104° East 493 567 25,100 -4,500 Descending FlightAware ADS-B
05:27AM 30.2514 -96.6535 107° East 499 574 22,700 -4,020 Descending FlightAware ADS-B
05:28AM 30.2307 -96.5782 108° East 473 544 21,000 -3,960 Descending FlightAware ADS-B
05:28AM 30.2109 -96.5038 107° East 461 531 18,700 -4,200 Descending FlightAware ADS-B
05:29AM 30.1749 -96.3664 107° East 432 497 14,600 -4,200 Descending FlightAware ADS-B
05:30AM 30.1576 -96.3001 107° East 422 486 12,400 -3,120 Descending FlightAware ADS-B
05:30AM 30.1414 -96.2384 107° East 381 438 11,500 -1,500 Descending FlightAware ADS-B
05:31AM 30.1266 -96.1829 107° East 341 392 10,900 -1,200 Descending FlightAware ADS-B
05:31AM 30.1135 -96.1334 107° East 310 357 10,300 -1,380 Descending FlightAware ADS-B
05:32AM 30.1073 -96.1100 107° East 298 343 9,900 -1,620 Descending FlightAware ADS-B
05:32AM 30.1012 -96.0874 107° East 291 335 9,500 -1,980 Descending FlightAware ADS-B
05:32AM 30.0950 -96.0646 107° East 289 333 8,900 -2,520 Descending FlightAware ADS-B
05:32AM 30.0890 -96.0421 107° East 291 335 8,200 -2,640 Descending FlightAware ADS-B
05:33AM 30.0830 -96.0196 107° East 293 337 7,600 -2,400 Descending FlightAware ADS-B
05:33AM 30.0771 -95.9967 107° East 295 339 7,000 -2,280 Descending FlightAware ADS-B
05:33AM 30.0715 -95.9754 107° East 295 339 6,500 -1,800 Descending FlightAware ADS-B
05:33AM 30.0654 -95.9529 107° East 295 339 6,100 -1,560 Descending FlightAware ADS-B
05:34AM 30.0591 -95.9301 108° East 295 339 5,700 -1,500 Descending FlightAware ADS-B
05:34AM 30.0534 -95.9088 107° East 289 333 5,400 -1,080 Descending FlightAware ADS-B
05:34AM 30.0476 -95.8871 107° East 281 323 5,200 -1,020 Descending FlightAware ADS-B
05:34AM 30.0419 -95.8657 107° East 276 318 4,900 -1,200 Descending FlightAware ADS-B
05:35AM 30.0361 -95.8438 107° East 273 314 4,600 -1,380 Descending FlightAware ADS-B
05:35AM 30.0304 -95.8230 108° East 270 311 4,200 -1,200 Descending FlightAware ADS-B
05:35AM 30.0248 -95.8024 107° East 269 310 4,000 -600 Descending FlightAware ADS-B
05:35AM 30.0188 -95.7802 107° East 256 295 3,900 -240 Descending FlightAware ADS-B
05:36AM 30.0137 -95.7611 107° East 239 275 3,900 180 Level FlightAware ADS-B
05:36AM 30.0088 -95.7429 107° East 232 267 4,000 180 Climbing FlightAware ADS-B
05:36AM 30.0040 -95.7251 107° East 229 264 4,000  Level FlightAware ADS-B
05:36AM 29.9992 -95.7073 107° East 229 264 4,000 -240 Level FlightAware ADS-B
05:36AM 29.9962 -95.6961 107° East 230 265 3,900 -480 Descending FlightAware ADS-B
05:37AM 29.9953 -95.6920 104° East 229 264 3,900  Level FlightAware ADS-B
05:37AM 29.9946 -95.6877 101° East 229 264 3,900  Level FlightAware ADS-B
05:37AM 29.9939 -95.6821 98° East 227 261 3,900  Level FlightAware ADS-B
05:37AM 29.9933 -95.6733 94° East 222 255 3,900 240 Level FlightAware ADS-B
05:37AM 29.9928 -95.6569 92° East 207 238 4,000 180 Climbing FlightAware ADS-B
05:37AM 29.9928 -95.6414 90° East 197 227 4,000  Level FlightAware ADS-B
05:37AM 29.9929 -95.6299 89° East 195 224 4,000  Level FlightAware ADS-B
05:38AM 29.9929 -95.6218 90° East 193 222 4,000  Level FlightAware ADS-B
05:38AM 29.9929 -95.6114 90° East 193 222 4,000 -240 Level FlightAware ADS-B
05:38AM 29.9929 -95.5960 90° East 194 223 3,900 -600 Descending FlightAware ADS-B
05:38AM 29.9930 -95.5770 90° East 195 224 3,700 -840 Descending FlightAware ADS-B
05:39AM 29.9930 -95.5586 90° East 193 222 3,400 -1,020 Descending FlightAware ADS-B
05:39AM 29.9930 -95.5469 90° East 191 220 3,200 -1,080 Descending FlightAware ADS-B
05:39AM 29.9931 -95.5292 90° East 190 219 2,900 -1,140 Descending FlightAware ADS-B
05:39AM 29.9931 -95.5135 90° East 188 216 2,600 -1,020 Descending FlightAware ADS-B
05:40AM 29.9932 -95.4985 90° East 185 213 2,400 -960 Descending FlightAware ADS-B
05:40AM 29.9932 -95.4818 90° East 182 209 2,100 -1,140 Descending FlightAware ADS-B
05:40AM 29.9932 -95.4721 90° East 181 208 1,900 -900 Descending FlightAware ADS-B
05:40AM 29.9932 -95.4552 90° East 168 193 1,700 -720 Descending FlightAware ADS-B
05:41AM 29.9933 -95.4417 90° East 155 178 1,500 -780 Descending FlightAware ADS-B
05:41AM 29.9933 -95.4301 90° East 137 158 1,300 -660 Descending FlightAware ADS-B
05:41AM 29.9933 -95.4213 90° East 126 145 1,200 -780 Descending FlightAware ADS-B
05:41AM 29.9933 -95.4142 90° East 123 142 1,000 -840 Descending FlightAware ADS-B
05:41AM 29.9934 -95.4073 89° East 121 139 900 -480 Descending FlightAware ADS-B
05:42AM 29.9934 -95.3974 90° East 121 139 800 -600 Descending FlightAware ADS-B
05:42AM 29.9934 -95.3876 90° East 121 139 600 -720 Descending FlightAware ADS-B
05:42AM 29.9934 -95.3816 90° East 121 139 500 -480 Descending FlightAware ADS-B
05:42AM 29.9934 -95.3790 90° East 122 140 500 -600 Level FlightAware ADS-B
05:42AM 29.9933 -95.3750 92° East 122 140 400 -720 Descending FlightAware ADS-B
05:43AM 29.9934 -95.3628 89° East 129 148 200 -660 Descending FlightAware ADS-B
05:43AM 29.9934 -95.3519 90° East 133 153 -840 Descending FlightAware ADS-B
05:43AM 29.9934 -95.3398 90° East 94 108  Level FlightAware ADS-B